Time;durP1;ratioP1;P1;durP2;ratioP2;P2;SDS_P1;SDS_P2;PMS_P1;PMS_P2;Temp;Humidity;BMP_temperature;BMP_pressure;BME280_temperature;BME280_humidity;BME280_pressure;Samples;Min_cycle;Max_cycle;Signal;HPM_P1;HPM_P2
2021/08/19 00:02:15;;;;;;;4.88;2.30;;;23.10;45.90;;;;;;5114162;28;20024;-72
2021/08/19 00:04:41;;;;;;;2.90;2.00;;;23.00;45.90;;;;;;5114272;28;20369;-71
2021/08/19 00:07:07;;;;;;;3.80;2.33;;;23.00;46.00;;;;;;5113887;28;20380;-70
2021/08/19 00:09:37;;;;;;;2.92;2.00;;;23.00;45.80;;;;;;5114030;28;20089;-69
2021/08/19 00:12:07;;;;;;;6.18;2.17;;;23.00;45.80;;;;;;5114100;28;20027;-69
2021/08/19 00:14:33;;;;;;;6.85;2.60;;;23.00;45.80;;;;;;5113874;28;20039;-69
2021/08/19 00:17:01;;;;;;;5.47;2.20;;;23.00;45.90;;;;;;5114131;28;20020;-69
2021/08/19 00:19:27;;;;;;;3.58;2.13;;;23.00;45.80;;;;;;5113750;28;20047;-69
2021/08/19 00:21:52;;;;;;;4.95;2.10;;;23.00;46.00;;;;;;5113779;28;20032;-68
2021/08/19 00:24:18;;;;;;;6.57;2.08;;;22.90;46.30;;;;;;5114208;28;20076;-70
2021/08/19 00:26:44;;;;;;;5.32;2.20;;;22.90;46.80;;;;;;5113702;28;20035;-69
2021/08/19 00:29:09;;;;;;;3.85;2.17;;;22.90;46.40;;;;;;5113698;28;20031;-73
2021/08/19 00:31:35;;;;;;;5.43;2.42;;;22.90;46.10;;;;;;5113697;28;20424;-70
2021/08/19 00:34:01;;;;;;;3.15;2.00;;;22.90;46.30;;;;;;5114420;28;20542;-69
2021/08/19 00:36:26;;;;;;;5.72;2.20;;;22.90;46.30;;;;;;5120629;28;20115;-68
2021/08/19 00:38:53;;;;;;;5.32;2.00;;;22.80;46.50;;;;;;5120259;28;20131;-70
2021/08/19 00:41:19;;;;;;;4.45;2.13;;;22.80;46.30;;;;;;5120360;28;20023;-74
2021/08/19 00:43:45;;;;;;;3.35;2.13;;;22.80;46.40;;;;;;5120418;28;20031;-70
2021/08/19 00:46:34;;;;;;;4.10;2.05;;;22.80;46.70;;;;;;5120379;28;20082;-72
2021/08/19 00:49:10;;;;;;;3.58;1.90;;;22.80;47.10;;;;;;5120530;28;20101;-69
2021/08/19 00:51:48;;;;;;;3.28;2.33;;;22.80;47.30;;;;;;5120506;28;20077;-69
2021/08/19 00:54:24;;;;;;;5.07;2.20;;;22.70;46.80;;;;;;5120438;28;20089;-72
2021/08/19 00:56:57;;;;;;;3.38;1.95;;;22.70;46.90;;;;;;5120331;28;20031;-73
2021/08/19 00:59:25;;;;;;;4.82;2.10;;;22.70;46.60;;;;;;5119442;28;20036;-76
2021/08/19 01:01:52;;;;;;;5.65;2.10;;;22.70;47.00;;;;;;5120361;28;20079;-75
2021/08/19 01:04:18;;;;;;;8.18;2.30;;;22.70;47.20;;;;;;5120235;28;20515;-70
2021/08/19 01:06:44;;;;;;;3.75;2.17;;;22.60;46.60;;;;;;5119821;28;20032;-70
2021/08/19 01:09:10;;;;;;;5.28;2.20;;;22.60;46.50;;;;;;5119880;28;20035;-70
2021/08/19 01:11:39;;;;;;;3.13;2.05;;;22.60;46.10;;;;;;5120312;28;20027;-70
2021/08/19 01:14:05;;;;;;;3.50;2.15;;;22.60;46.20;;;;;;5119778;28;20057;-75
2021/08/19 01:16:31;;;;;;;3.15;2.10;;;22.60;46.20;;;;;;5120013;28;20118;-74
2021/08/19 01:18:57;;;;;;;3.40;2.10;;;22.60;46.20;;;;;;5119939;28;20040;-70
2021/08/19 01:21:23;;;;;;;4.78;2.20;;;22.60;45.50;;;;;;5119947;28;20023;-71
2021/08/19 01:23:48;;;;;;;4.80;2.30;;;22.60;45.10;;;;;;5120153;28;20034;-74
2021/08/19 01:26:17;;;;;;;6.28;2.40;;;22.60;45.90;;;;;;5119968;28;20043;-71
2021/08/19 01:28:44;;;;;;;4.20;2.20;;;22.60;46.20;;;;;;5119703;28;20468;-69
2021/08/19 01:31:16;;;;;;;2.80;1.80;;;22.60;45.30;;;;;;5119806;28;20031;-69
2021/08/19 01:33:43;;;;;;;4.95;2.00;;;22.60;45.20;;;;;;5120110;28;20070;-73
2021/08/19 01:36:10;;;;;;;2.67;2.00;;;22.60;44.90;;;;;;5119655;28;20098;-69
2021/08/19 01:38:37;;;;;;;5.45;2.53;;;22.60;45.20;;;;;;5119794;28;20075;-69
2021/08/19 01:41:03;;;;;;;5.78;2.30;;;22.70;45.10;;;;;;5119730;28;20040;-69
2021/08/19 01:43:29;;;;;;;8.10;2.22;;;22.70;45.20;;;;;;5119389;28;20031;-72
2021/08/19 01:45:58;;;;;;;2.65;1.77;;;22.60;45.20;;;;;;5117904;28;20418;-71
2021/08/19 01:48:23;;;;;;;4.10;1.77;;;22.60;45.40;;;;;;5116625;28;20031;-73
2021/08/19 01:50:49;;;;;;;2.75;1.85;;;22.60;45.40;;;;;;5116430;28;20028;-71
2021/08/19 01:53:14;;;;;;;7.40;2.40;;;22.60;45.30;;;;;;5116768;28;20028;-70
2021/08/19 01:55:40;;;;;;;3.78;2.15;;;22.60;45.80;;;;;;5117050;28;20043;-69
2021/08/19 01:58:07;;;;;;;4.72;2.33;;;22.60;46.50;;;;;;5116140;28;20023;-73
2021/08/19 02:00:33;;;;;;;6.30;2.20;;;22.50;45.80;;;;;;5116518;28;20035;-70
2021/08/19 02:03:02;;;;;;;4.82;2.30;;;22.60;45.70;;;;;;5116721;28;20479;-71
2021/08/19 02:05:29;;;;;;;3.85;2.05;;;22.60;45.70;;;;;;5116300;28;20067;-72
2021/08/19 02:07:54;;;;;;;6.32;2.22;;;22.60;45.80;;;;;;5116107;28;20464;-73
2021/08/19 02:10:20;;;;;;;3.80;2.00;;;22.60;45.80;;;;;;5116244;28;20196;-70
2021/08/19 02:12:46;;;;;;;7.60;2.60;;;22.50;45.60;;;;;;5116023;28;20438;-71
2021/08/19 02:15:13;;;;;;;2.78;2.17;;;22.50;46.00;;;;;;5116081;28;20391;-74
2021/08/19 02:17:39;;;;;;;6.88;2.22;;;22.50;46.10;;;;;;5115787;28;20035;-70
2021/08/19 02:20:05;;;;;;;5.05;2.10;;;22.50;45.80;;;;;;5116005;28;20036;-70
2021/08/19 02:22:31;;;;;;;3.42;2.20;;;22.50;46.00;;;;;;5116011;28;20046;-69
2021/08/19 02:24:56;;;;;;;3.05;2.22;;;22.40;46.10;;;;;;5115629;28;20412;-74
2021/08/19 02:27:22;;;;;;;4.60;2.20;;;22.50;46.40;;;;;;5116033;28;20034;-72
2021/08/19 02:29:49;;;;;;;6.03;2.25;;;22.40;46.90;;;;;;5115648;28;20067;-70
2021/08/19 02:32:15;;;;;;;4.60;2.22;;;22.40;46.40;;;;;;5115604;28;20040;-71
2021/08/19 02:34:41;;;;;;;3.33;2.22;;;22.40;46.50;;;;;;5115702;28;20126;-68
2021/08/19 02:37:07;;;;;;;2.85;2.13;;;22.40;46.00;;;;;;5115649;28;20111;-69
2021/08/19 02:39:32;;;;;;;3.85;2.38;;;22.40;46.10;;;;;;5115371;28;20044;-71
2021/08/19 02:41:58;;;;;;;3.28;2.28;;;22.40;46.30;;;;;;5115359;28;20085;-69
2021/08/19 02:44:23;;;;;;;3.42;2.08;;;22.40;46.60;;;;;;5115344;28;20086;-70
2021/08/19 02:46:49;;;;;;;3.97;2.40;;;22.30;46.50;;;;;;5115443;28;20035;-70
2021/08/19 02:49:15;;;;;;;4.22;2.30;;;22.30;46.00;;;;;;5115427;28;20036;-70
2021/08/19 02:51:40;;;;;;;5.45;2.20;;;22.30;46.00;;;;;;5115276;28;20047;-69
2021/08/19 02:54:06;;;;;;;5.13;2.00;;;22.30;46.80;;;;;;5115119;28;20036;-69
2021/08/19 02:56:32;;;;;;;4.55;2.40;;;22.30;46.50;;;;;;5115314;28;20031;-68
2021/08/19 02:58:57;;;;;;;3.90;2.63;;;22.20;46.60;;;;;;5114815;28;20039;-70
2021/08/19 03:01:23;;;;;;;3.38;1.92;;;22.20;47.40;;;;;;5115220;28;20069;-69
2021/08/19 03:03:49;;;;;;;3.10;2.10;;;22.20;47.00;;;;;;5115223;28;20060;-68
2021/08/19 03:06:14;;;;;;;4.35;2.05;;;22.20;47.00;;;;;;5115390;28;20031;-69
2021/08/19 03:08:40;;;;;;;3.95;2.10;;;22.20;46.60;;;;;;5115233;28;20140;-70
2021/08/19 03:11:06;;;;;;;4.55;2.22;;;22.20;47.50;;;;;;5115117;28;20476;-70
2021/08/19 03:13:31;;;;;;;6.78;2.55;;;22.20;47.20;;;;;;5115622;28;20110;-69
2021/08/19 03:15:57;;;;;;;4.03;2.38;;;22.10;48.40;;;;;;5114779;28;20032;-69
2021/08/19 03:18:23;;;;;;;2.90;2.20;;;22.10;48.40;;;;;;5114854;28;20051;-71
2021/08/19 03:20:48;;;;;;;4.63;2.10;;;22.00;48.70;;;;;;5114986;28;20030;-69
2021/08/19 03:23:14;;;;;;;5.28;1.92;;;22.00;49.20;;;;;;5114903;28;20047;-72
2021/08/19 03:25:40;;;;;;;3.30;2.42;;;21.90;48.20;;;;;;5114371;28;20052;-71
2021/08/19 03:28:08;;;;;;;3.60;2.00;;;21.90;51.70;;;;;;5114826;28;20432;-69
2021/08/19 03:30:34;;;;;;;8.45;2.10;;;21.80;50.80;;;;;;5114614;28;20066;-69
2021/08/19 03:33:06;;;;;;;11.07;2.20;;;21.80;51.40;;;;;;5114621;28;20506;-71
2021/08/19 03:35:32;;;;;;;2.97;2.20;;;21.80;51.60;;;;;;5114994;28;20028;-69
2021/08/19 03:37:58;;;;;;;4.45;2.20;;;21.70;50.90;;;;;;5114285;28;20480;-70
2021/08/19 03:40:24;;;;;;;4.03;2.50;;;21.70;51.00;;;;;;5114388;28;20178;-69
2021/08/19 03:42:49;;;;;;;2.97;1.85;;;21.60;52.00;;;;;;5114688;28;20067;-71
2021/08/19 03:45:19;;;;;;;4.20;2.50;;;21.60;51.30;;;;;;5114605;28;20031;-69
2021/08/19 03:47:46;;;;;;;5.82;2.30;;;21.60;53.10;;;;;;5114523;28;20369;-71
2021/08/19 03:50:12;;;;;;;8.15;2.15;;;21.50;52.40;;;;;;5114264;28;20035;-69
2021/08/19 03:52:37;;;;;;;5.43;2.22;;;21.50;52.70;;;;;;5114261;28;20111;-69
2021/08/19 03:55:04;;;;;;;5.35;2.38;;;21.50;53.30;;;;;;5114246;28;20028;-71
2021/08/19 03:57:30;;;;;;;2.65;2.20;;;21.50;52.70;;;;;;5113969;28;20088;-71
2021/08/19 03:59:55;;;;;;;4.55;2.50;;;21.50;52.10;;;;;;5114057;28;20126;-69
2021/08/19 04:02:21;;;;;;;4.43;2.50;;;21.50;52.50;;;;;;5114241;28;20031;-72
2021/08/19 04:04:47;;;;;;;4.90;2.28;;;21.50;53.10;;;;;;5114052;28;20125;-73
2021/08/19 04:07:12;;;;;;;5.18;2.50;;;21.50;52.90;;;;;;5114354;28;20032;-69
2021/08/19 04:09:38;;;;;;;5.15;2.60;;;21.50;52.80;;;;;;5113241;28;20418;-73
2021/08/19 04:12:04;;;;;;;4.45;2.20;;;21.50;53.10;;;;;;5114054;28;20132;-70
2021/08/19 04:14:31;;;;;;;4.50;2.20;;;21.40;53.20;;;;;;5113958;28;20043;-70
2021/08/19 04:16:57;;;;;;;7.15;2.28;;;21.40;53.40;;;;;;5114038;28;20038;-72
2021/08/19 04:19:23;;;;;;;5.57;2.60;;;21.40;52.90;;;;;;5113894;28;20126;-74
2021/08/19 04:21:49;;;;;;;3.78;2.17;;;21.40;53.30;;;;;;5113664;28;20036;-69
2021/08/19 04:24:15;;;;;;;10.13;2.28;;;21.40;52.40;;;;;;5113997;28;20039;-70
2021/08/19 04:26:41;;;;;;;4.22;2.58;;;21.40;52.70;;;;;;5113655;28;20134;-71
2021/08/19 04:29:07;;;;;;;7.28;2.33;;;21.50;53.10;;;;;;5113965;28;20136;-70
2021/08/19 04:31:32;;;;;;;3.58;2.50;;;21.40;55.20;;;;;;5113972;28;20031;-70
2021/08/19 04:33:58;;;;;;;3.53;2.10;;;21.40;54.20;;;;;;5113807;28;20495;-69
2021/08/19 04:36:24;;;;;;;4.47;2.17;;;21.40;54.10;;;;;;5113866;28;20146;-71
2021/08/19 04:38:49;;;;;;;5.63;2.33;;;21.50;53.30;;;;;;5113804;28;20040;-70
2021/08/19 04:41:16;;;;;;;4.88;2.53;;;21.50;53.30;;;;;;5095530;28;20028;-72
2021/08/19 04:43:41;;;;;;;4.88;2.50;;;21.40;54.00;;;;;;5114016;28;20036;-73
2021/08/19 04:46:08;;;;;;;5.47;2.40;;;21.40;55.40;;;;;;5113525;28;20451;-76
2021/08/19 04:48:34;;;;;;;6.15;2.40;;;21.40;54.00;;;;;;5113806;28;20040;-75
2021/08/19 04:50:59;;;;;;;10.82;2.50;;;21.50;54.00;;;;;;5113521;28;20502;-73
2021/08/19 04:53:25;;;;;;;4.10;2.20;;;21.50;53.60;;;;;;5113512;28;20031;-76
2021/08/19 04:55:51;;;;;;;4.25;2.60;;;21.50;53.80;;;;;;5113560;28;20035;-75
2021/08/19 04:58:16;;;;;;;4.78;2.60;;;21.50;54.20;;;;;;5113576;28;20040;-74
2021/08/19 05:00:42;;;;;;;5.70;2.30;;;21.60;53.30;;;;;;5113457;28;20042;-70
2021/08/19 05:03:08;;;;;;;5.68;2.28;;;21.60;54.30;;;;;;5113601;28;20028;-72
2021/08/19 05:05:33;;;;;;;14.07;2.90;;;21.60;54.50;;;;;;5113466;28;20039;-70
2021/08/19 05:07:59;;;;;;;7.95;2.28;;;21.60;53.20;;;;;;5113535;28;20064;-69
2021/08/19 05:10:24;;;;;;;4.00;2.15;;;21.60;52.80;;;;;;5113278;28;20468;-68
2021/08/19 05:12:50;;;;;;;7.40;2.58;;;21.60;53.10;;;;;;5113461;28;20534;-70
2021/08/19 05:15:16;;;;;;;6.50;1.90;;;21.70;52.90;;;;;;5113589;28;20113;-69
2021/08/19 05:17:41;;;;;;;5.28;2.10;;;21.70;51.30;;;;;;5113236;28;20472;-76
2021/08/19 05:20:08;;;;;;;9.80;2.70;;;21.70;52.80;;;;;;5113707;28;20074;-74
2021/08/19 05:22:34;;;;;;;7.65;2.40;;;21.70;52.00;;;;;;5117366;28;20032;-66
2021/08/19 05:24:59;;;;;;;3.63;2.00;;;21.80;51.40;;;;;;5117123;28;20454;-72
2021/08/19 05:27:25;;;;;;;4.63;2.42;;;21.80;52.60;;;;;;5117223;28;20483;-68
2021/08/19 05:29:51;;;;;;;3.80;2.00;;;21.80;51.90;;;;;;5117133;28;20044;-65
2021/08/19 05:32:16;;;;;;;3.58;2.20;;;21.90;52.90;;;;;;5116878;28;20459;-67
2021/08/19 05:34:42;;;;;;;6.55;3.03;;;21.90;52.10;;;;;;5117116;28;20391;-74
2021/08/19 05:37:08;;;;;;;3.92;2.53;;;21.90;52.30;;;;;;5116826;28;20119;-66
2021/08/19 05:39:33;;;;;;;4.45;2.40;;;22.00;51.90;;;;;;5116925;28;20071;-70
2021/08/19 05:41:59;;;;;;;4.60;2.35;;;22.00;51.60;;;;;;5117220;28;20379;-71
2021/08/19 05:44:24;;;;;;;5.97;2.20;;;22.10;51.60;;;;;;5116720;28;20419;-67
2021/08/19 05:46:50;;;;;;;4.95;2.50;;;22.20;51.90;;;;;;5116804;28;20028;-72
2021/08/19 05:49:16;;;;;;;5.53;2.47;;;22.30;52.20;;;;;;5116344;28;20055;-66
2021/08/19 05:51:41;;;;;;;4.35;2.30;;;22.30;52.30;;;;;;5116637;28;20035;-68
2021/08/19 05:54:07;;;;;;;3.70;2.42;;;22.30;51.70;;;;;;5116548;28;20031;-68
2021/08/19 05:56:33;;;;;;;6.05;2.58;;;22.40;51.30;;;;;;5116577;28;20150;-75
2021/08/19 05:58:58;;;;;;;6.63;2.33;;;22.40;51.50;;;;;;5116295;28;20043;-69
2021/08/19 06:01:24;;;;;;;4.60;2.33;;;22.50;51.40;;;;;;5116359;28;20399;-66
2021/08/19 06:03:50;;;;;;;6.03;2.72;;;22.50;51.10;;;;;;5116065;28;20535;-73
2021/08/19 06:06:16;;;;;;;10.88;2.53;;;22.50;51.00;;;;;;5116125;28;20115;-72
2021/08/19 06:08:42;;;;;;;4.10;2.50;;;22.60;50.40;;;;;;5116350;28;20036;-69
2021/08/19 06:11:07;;;;;;;5.03;2.20;;;22.60;50.60;;;;;;5116169;28;20494;-75
2021/08/19 06:13:33;;;;;;;9.75;2.60;;;22.70;50.30;;;;;;5097821;28;20031;-74
2021/08/19 06:15:58;;;;;;;9.13;2.70;;;22.80;50.20;;;;;;5116026;28;20118;-75
2021/08/19 06:18:24;;;;;;;5.20;2.30;;;22.80;49.30;;;;;;5115938;28;20440;-75
2021/08/19 06:20:50;;;;;;;4.38;2.40;;;22.90;48.80;;;;;;5115991;28;20038;-74
2021/08/19 06:23:15;;;;;;;3.40;2.15;;;22.90;48.50;;;;;;5116216;28;20036;-74
2021/08/19 06:25:42;;;;;;;4.35;2.38;;;23.00;49.10;;;;;;5115804;28;20452;-75
2021/08/19 06:28:08;;;;;;;4.00;2.00;;;23.10;48.50;;;;;;5115949;28;20118;-70
2021/08/19 06:30:35;;;;;;;6.57;2.33;;;23.10;48.30;;;;;;5115740;28;20036;-74
2021/08/19 06:33:01;;;;;;;9.77;2.75;;;23.20;48.20;;;;;;5115186;28;20077;-73
2021/08/19 06:35:27;;;;;;;5.90;2.45;;;23.30;48.10;;;;;;5116179;28;20042;-74
2021/08/19 06:37:54;;;;;;;2.92;2.33;;;23.20;48.10;;;;;;5115111;28;20102;-72
2021/08/19 06:40:19;;;;;;;4.75;2.35;;;23.30;47.60;;;;;;5115784;28;20039;-73
2021/08/19 06:42:45;;;;;;;8.30;2.58;;;23.30;48.20;;;;;;5115748;28;20349;-75
2021/08/19 06:45:11;;;;;;;3.55;2.30;;;23.30;47.90;;;;;;5115676;28;20044;-74
2021/08/19 06:47:37;;;;;;;4.78;2.17;;;23.30;47.80;;;;;;5115501;28;20483;-74
2021/08/19 06:50:03;;;;;;;5.90;2.63;;;23.30;47.70;;;;;;5115446;28;20080;-74
2021/08/19 06:52:29;;;;;;;3.78;2.03;;;23.40;47.50;;;;;;5115150;28;20168;-72
2021/08/19 06:54:56;;;;;;;8.52;2.58;;;23.40;47.50;;;;;;5115699;28;20061;-72
2021/08/19 06:57:22;;;;;;;4.78;2.03;;;23.40;47.10;;;;;;5115418;28;20380;-73
2021/08/19 06:59:48;;;;;;;3.42;2.25;;;23.40;47.10;;;;;;5115218;28;20043;-74
2021/08/19 07:02:14;;;;;;;4.82;2.58;;;23.50;47.40;;;;;;5114977;28;20039;-70
2021/08/19 07:04:40;;;;;;;5.38;2.47;;;23.60;47.50;;;;;;5095848;28;20032;-70
2021/08/19 07:07:06;;;;;;;3.88;2.40;;;23.60;47.50;;;;;;5114139;28;20072;-73
2021/08/19 07:09:31;;;;;;;3.03;1.88;;;23.60;47.30;;;;;;5114093;28;20074;-71
2021/08/19 07:11:57;;;;;;;6.47;2.45;;;23.70;46.90;;;;;;5113771;28;20032;-74
2021/08/19 07:14:23;;;;;;;3.25;2.03;;;23.70;46.70;;;;;;5115119;28;20034;-73
2021/08/19 07:16:49;;;;;;;3.42;2.05;;;23.80;45.60;;;;;;5115412;28;20468;-73
2021/08/19 07:19:14;;;;;;;6.07;2.08;;;23.80;45.10;;;;;;5114617;28;20052;-74
2021/08/19 07:21:40;;;;;;;4.38;2.10;;;23.90;45.20;;;;;;5114714;28;20085;-73
2021/08/19 07:24:06;;;;;;;4.70;2.50;;;23.90;45.00;;;;;;5114903;28;20035;-72
2021/08/19 07:26:32;;;;;;;5.63;2.30;;;24.10;45.70;;;;;;5114565;28;20035;-73
2021/08/19 07:28:58;;;;;;;4.47;2.10;;;24.10;45.10;;;;;;5114943;28;20372;-72
2021/08/19 07:31:24;;;;;;;4.43;2.30;;;24.20;45.30;;;;;;5114739;28;20057;-72
2021/08/19 07:33:50;;;;;;;14.27;2.55;;;24.20;45.10;;;;;;5114840;28;20165;-67
2021/08/19 07:36:16;;;;;;;8.65;2.40;;;24.20;44.90;;;;;;5114810;28;20043;-74
2021/08/19 07:38:42;;;;;;;12.30;2.75;;;24.20;44.30;;;;;;5114324;28;20043;-73
2021/08/19 07:41:08;;;;;;;6.00;1.98;;;24.30;44.40;;;;;;5114583;28;20483;-74
2021/08/19 07:43:34;;;;;;;8.38;2.00;;;24.40;44.50;;;;;;5114022;28;20384;-73
2021/08/19 07:46:00;;;;;;;5.45;2.15;;;24.40;44.30;;;;;;5113934;28;20028;-74
2021/08/19 07:48:26;;;;;;;7.68;2.30;;;24.50;44.50;;;;;;5114530;28;20168;-74
2021/08/19 07:50:51;;;;;;;7.07;1.83;;;24.50;44.80;;;;;;5114141;28;20039;-73
2021/08/19 07:53:17;;;;;;;3.13;2.10;;;24.60;44.40;;;;;;5114383;28;20084;-74
2021/08/19 07:55:43;;;;;;;4.75;1.70;;;24.60;44.50;;;;;;5114313;28;20028;-75
2021/08/19 07:58:09;;;;;;;4.28;2.20;;;24.60;44.00;;;;;;5113982;28;20158;-74
2021/08/19 08:00:36;;;;;;;3.25;2.25;;;24.70;43.40;;;;;;5113967;28;20062;-74
2021/08/19 08:03:02;;;;;;;3.65;2.22;;;24.80;43.40;;;;;;5114080;28;20041;-74
2021/08/19 08:05:30;;;;;;;2.90;1.98;;;24.80;42.00;;;;;;5114011;28;20032;-74
2021/08/19 08:08:13;;;;;;;5.47;2.17;;;24.80;43.10;;;;;;5114128;28;20062;-74
2021/08/19 08:10:41;;;;;;;6.35;2.00;;;25.00;41.30;;;;;;5113847;28;20046;-74
2021/08/19 08:13:07;;;;;;;3.40;1.77;;;25.00;41.20;;;;;;5114069;28;20054;-74
2021/08/19 08:15:35;;;;;;;4.80;2.03;;;25.00;41.50;;;;;;5113989;28;20032;-74
2021/08/19 08:18:01;;;;;;;2.75;1.90;;;25.00;41.40;;;;;;5113640;28;20471;-74
2021/08/19 08:20:27;;;;;;;3.63;2.10;;;25.10;41.70;;;;;;5114010;28;20031;-75
2021/08/19 08:22:53;;;;;;;3.45;1.90;;;25.20;40.90;;;;;;5113523;28;20105;-75
2021/08/19 08:25:19;;;;;;;3.28;2.13;;;25.30;40.20;;;;;;5113581;28;20058;-74
2021/08/19 08:27:58;;;;;;;3.03;1.85;;;25.30;39.40;;;;;;5113759;28;20031;-75
2021/08/19 08:30:24;;;;;;;2.95;2.20;;;25.30;40.00;;;;;;5113922;28;20038;-75
2021/08/19 08:32:50;;;;;;;5.97;1.92;;;25.30;39.60;;;;;;5113786;28;20028;-74
2021/08/19 08:35:15;;;;;;;4.13;2.00;;;25.40;40.50;;;;;;5113723;28;20039;-75
2021/08/19 08:37:41;;;;;;;3.92;1.90;;;25.50;40.20;;;;;;5113787;28;20035;-74
2021/08/19 08:40:08;;;;;;;5.38;1.90;;;25.50;38.70;;;;;;5113379;28;20131;-75
2021/08/19 08:42:34;;;;;;;4.68;2.08;;;25.60;38.90;;;;;;5113341;28;20055;-76
2021/08/19 08:45:01;;;;;;;2.28;2.08;;;25.60;39.20;;;;;;5113488;28;20075;-76
2021/08/19 08:47:32;;;;;;;4.45;2.08;;;25.70;39.30;;;;;;5113410;28;20058;-73
2021/08/19 08:49:59;;;;;;;3.75;1.60;;;25.70;39.20;;;;;;5113577;28;20035;-75
2021/08/19 08:52:27;;;;;;;3.00;2.00;;;25.80;39.90;;;;;;5113381;28;20064;-77
2021/08/19 08:54:53;;;;;;;2.47;2.20;;;25.80;39.30;;;;;;5113455;28;20028;-73
2021/08/19 08:57:19;;;;;;;3.65;1.90;;;25.90;39.50;;;;;;5117142;28;20032;-76
2021/08/19 08:59:45;;;;;;;3.13;2.10;;;25.90;39.90;;;;;;5117574;28;20040;-78
2021/08/19 09:02:10;;;;;;;3.47;2.08;;;26.00;39.00;;;;;;5117292;28;20040;-78
2021/08/19 09:04:36;;;;;;;2.92;1.92;;;26.10;39.10;;;;;;5117372;28;20036;-68
2021/08/19 09:07:05;;;;;;;4.15;1.73;;;26.20;39.60;;;;;;5117411;28;20023;-74
2021/08/19 09:09:31;;;;;;;3.22;2.10;;;26.20;38.20;;;;;;5118262;28;20031;-68
2021/08/19 09:12:01;;;;;;;2.88;1.77;;;26.30;39.30;;;;;;5117391;28;20051;-72
2021/08/19 09:14:30;;;;;;;3.33;2.03;;;26.40;37.90;;;;;;5117284;28;20031;-70
2021/08/19 09:16:56;;;;;;;2.40;1.70;;;26.50;38.30;;;;;;5117617;28;20089;-71
2021/08/19 09:19:26;;;;;;;3.53;2.38;;;26.50;38.40;;;;;;5117389;28;20079;-75
2021/08/19 09:22:00;;;;;;;3.70;2.38;;;26.50;38.90;;;;;;5117572;28;20032;-68
2021/08/19 09:24:32;;;;;;;3.50;2.88;;;26.60;39.20;;;;;;5116962;28;20038;-77
2021/08/19 09:27:12;;;;;;;2.83;1.75;;;26.70;38.90;;;;;;5117271;28;20040;-72
2021/08/19 09:29:38;;;;;;;5.80;1.98;;;26.70;38.30;;;;;;5117291;28;20023;-72
2021/08/19 09:32:18;;;;;;;6.22;2.00;;;26.80;37.20;;;;;;5117073;28;20107;-79
2021/08/19 09:34:46;;;;;;;3.25;1.98;;;26.90;37.30;;;;;;5116951;28;20032;-76
2021/08/19 09:37:14;;;;;;;2.40;1.88;;;26.90;37.20;;;;;;5117102;28;20136;-76
2021/08/19 09:39:43;;;;;;;4.85;2.03;;;27.00;37.10;;;;;;5116805;28;20035;-74
2021/08/19 09:42:09;;;;;;;2.63;1.98;;;27.00;38.00;;;;;;5119662;28;20056;-75
2021/08/19 09:44:46;;;;;;;2.47;1.75;;;27.10;37.20;;;;;;5122937;28;20039;-76
2021/08/19 09:47:31;;;;;;;1.73;1.60;;;27.20;36.00;;;;;;5116967;28;20110;-75
2021/08/19 09:50:13;;;;;;;2.83;2.03;;;27.20;36.70;;;;;;5116591;28;20035;-81
2021/08/19 09:52:40;;;;;;;2.40;1.75;;;27.30;36.90;;;;;;5116635;28;20097;-75
2021/08/19 09:55:27;;;;;;;2.30;1.80;;;27.30;36.70;;;;;;5115924;28;20030;-75
2021/08/19 09:57:54;;;;;;;2.70;2.00;;;27.40;36.80;;;;;;5115917;28;20032;-74
2021/08/19 10:00:36;;;;;;;2.55;1.55;;;27.50;36.60;;;;;;5115491;28;20039;-73
2021/08/19 10:03:02;;;;;;;2.88;1.77;;;27.60;36.70;;;;;;5115741;28;20127;-76
2021/08/19 10:05:28;;;;;;;2.45;2.05;;;27.60;36.20;;;;;;5115292;28;20034;-73
2021/08/19 10:07:55;;;;;;;3.05;1.95;;;27.60;36.70;;;;;;5114132;28;20111;-73
2021/08/19 10:10:21;;;;;;;5.10;1.80;;;27.70;37.50;;;;;;5115212;28;20069;-75
2021/08/19 10:12:48;;;;;;;6.53;1.83;;;27.70;35.90;;;;;;5115354;28;20036;-75
2021/08/19 10:15:15;;;;;;;2.95;2.15;;;27.80;36.00;;;;;;5115090;28;20028;-75
2021/08/19 10:17:59;;;;;;;6.07;1.70;;;27.80;36.40;;;;;;5115202;28;20042;-74
2021/08/19 10:20:30;;;;;;;3.13;1.88;;;27.90;36.70;;;;;;5115277;28;20460;-75
2021/08/19 10:22:59;;;;;;;2.73;1.80;;;28.00;36.70;;;;;;5115209;28;20036;-72
2021/08/19 10:25:26;;;;;;;4.78;2.00;;;28.00;36.50;;;;;;5114850;28;20487;-66
2021/08/19 10:28:27;;;;;;;2.83;1.70;;;28.10;35.70;;;;;;5115197;28;20024;-74
2021/08/19 10:30:57;;;;;;;2.22;1.80;;;28.10;35.50;;;;;;5012408;28;20037;-72
2021/08/19 10:33:35;;;;;;;1.83;1.65;;;28.10;35.00;;;;;;5081416;28;20040;-70
2021/08/19 10:36:10;;;;;;;1.85;1.55;;;28.10;35.70;;;;;;5124321;28;20123;-69
2021/08/19 10:38:40;;;;;;;3.83;1.67;;;28.20;35.80;;;;;;5119029;28;20035;-73
2021/08/19 10:41:30;;;;;;;3.95;2.15;;;28.20;34.80;;;;;;5115414;28;20108;-75
2021/08/19 10:44:10;;;;;;;2.70;2.00;;;28.20;35.40;;;;;;5115366;28;20054;-76
2021/08/19 10:46:41;;;;;;;5.07;2.17;;;28.20;34.90;;;;;;5115353;28;20042;-75
2021/08/19 10:49:07;;;;;;;4.20;1.77;;;28.20;35.50;;;;;;5114917;28;20472;-74
2021/08/19 10:51:33;;;;;;;9.25;2.28;;;28.20;35.80;;;;;;5115055;28;20093;-76
2021/08/19 10:53:59;;;;;;;7.22;2.33;;;28.30;36.10;;;;;;5114908;28;20024;-75
2021/08/19 10:56:45;;;;;;;9.85;2.50;;;28.30;35.00;;;;;;5114784;28;20066;-68
2021/08/19 10:59:30;;;;;;;8.35;2.38;;;28.40;35.90;;;;;;5114550;28;20054;-74
2021/08/19 11:01:55;;;;;;;5.93;2.08;;;28.40;35.80;;;;;;5114360;28;20046;-73
2021/08/19 11:04:44;;;;;;;2.97;1.70;;;28.50;35.70;;;;;;5096823;28;20035;-76
2021/08/19 11:07:10;;;;;;;7.50;2.28;;;28.50;35.20;;;;;;5115176;28;20081;-76
2021/08/19 11:09:36;;;;;;;3.20;1.95;;;28.50;33.70;;;;;;5115197;28;20039;-74
2021/08/19 11:12:07;;;;;;;2.70;1.83;;;28.50;34.50;;;;;;5114692;28;20066;-74
2021/08/19 11:14:32;;;;;;;4.35;1.80;;;28.50;34.80;;;;;;5115085;28;20055;-76
2021/08/19 11:17:03;;;;;;;4.40;2.20;;;28.60;33.80;;;;;;5115238;28;20032;-76
2021/08/19 11:19:31;;;;;;;4.85;2.25;;;28.60;35.80;;;;;;5115000;28;20039;-75
2021/08/19 11:22:02;;;;;;;2.75;1.80;;;28.60;34.70;;;;;;5114929;28;20019;-75
2021/08/19 11:24:30;;;;;;;4.72;2.10;;;28.70;34.30;;;;;;5115169;28;20368;-76
2021/08/19 11:27:03;;;;;;;2.95;1.90;;;28.70;35.20;;;;;;5114763;28;20407;-75
2021/08/19 11:29:40;;;;;;;3.08;2.10;;;28.80;35.10;;;;;;5115002;28;20027;-72
2021/08/19 11:32:06;;;;;;;4.13;2.13;;;28.80;34.40;;;;;;5114742;28;20035;-76
2021/08/19 11:34:32;;;;;;;2.90;1.83;;;28.90;34.30;;;;;;5114617;28;20038;-76
2021/08/19 11:36:57;;;;;;;2.60;1.88;;;28.90;35.30;;;;;;5114501;28;20039;-71
2021/08/19 11:39:26;;;;;;;3.78;1.90;;;29.00;34.90;;;;;;5114240;28;20122;-76
2021/08/19 11:42:07;;;;;;;5.00;2.00;;;29.00;35.00;;;;;;5114595;28;20036;-76
2021/08/19 11:44:34;;;;;;;2.00;1.73;;;29.10;35.30;;;;;;5114485;28;20036;-71
2021/08/19 11:47:05;;;;;;;3.25;1.75;;;29.10;34.90;;;;;;5114317;28;20127;-75
2021/08/19 11:49:32;;;;;;;2.53;1.67;;;29.20;35.10;;;;;;5114579;28;20031;-74
2021/08/19 11:52:06;;;;;;;2.63;1.85;;;29.20;35.00;;;;;;5114412;28;20032;-71
2021/08/19 11:54:46;;;;;;;2.35;1.73;;;29.20;35.00;;;;;;5114573;28;20072;-75
2021/08/19 11:57:23;;;;;;;2.33;1.70;;;29.20;34.10;;;;;;5114165;28;20050;-75
2021/08/19 12:00:08;;;;;;;2.35;1.83;;;29.20;34.10;;;;;;5113933;28;20461;-69
2021/08/19 12:02:33;;;;;;;2.78;1.83;;;29.30;34.20;;;;;;5114344;28;20157;-75
2021/08/19 12:05:11;;;;;;;3.05;1.75;;;29.30;34.60;;;;;;5113982;28;20424;-76
2021/08/19 12:07:41;;;;;;;3.67;2.20;;;29.40;34.50;;;;;;5114250;28;20468;-76
2021/08/19 12:10:08;;;;;;;3.28;1.80;;;29.40;34.80;;;;;;5114000;28;20027;-74
2021/08/19 12:12:37;;;;;;;5.78;2.30;;;29.40;34.80;;;;;;5096091;28;20036;-74
2021/08/19 12:15:08;;;;;;;3.13;2.10;;;29.50;33.60;;;;;;5114099;28;20035;-75
2021/08/19 12:17:34;;;;;;;2.88;1.92;;;29.50;34.10;;;;;;5113959;28;20547;-72
2021/08/19 12:20:18;;;;;;;2.92;1.90;;;29.50;33.20;;;;;;5113911;28;20048;-67
2021/08/19 12:22:44;;;;;;;2.35;1.83;;;29.50;34.30;;;;;;5114041;28;20162;-75
2021/08/19 12:25:19;;;;;;;3.50;2.20;;;29.50;33.90;;;;;;5113433;28;20050;-75
2021/08/19 12:28:18;;;;;;;2.42;1.90;;;29.50;34.00;;;;;;5113973;28;20122;-73
2021/08/19 12:31:06;;;;;;;2.30;1.80;;;29.60;34.40;;;;;;5057165;28;20407;-75
2021/08/19 12:33:31;;;;;;;9.10;2.10;;;29.70;35.40;;;;;;5113464;28;20142;-72
2021/08/19 12:36:12;;;;;;;5.10;1.92;;;29.70;34.40;;;;;;5113130;28;20059;-72
2021/08/19 12:38:38;;;;;;;2.78;2.00;;;29.70;32.60;;;;;;5113579;28;20062;-69
2021/08/19 12:41:15;;;;;;;2.22;1.95;;;29.70;32.00;;;;;;5112844;28;20032;-69
2021/08/19 12:43:42;;;;;;;3.03;2.05;;;29.70;33.00;;;;;;5112611;28;20483;-73
2021/08/19 12:46:09;;;;;;;4.28;2.03;;;29.60;33.60;;;;;;5113218;28;20042;-69
2021/08/19 12:48:35;;;;;;;2.20;2.00;;;29.70;34.40;;;;;;5113741;28;20154;-72
2021/08/19 12:51:26;;;;;;;5.35;2.28;;;29.70;34.30;;;;;;5113691;28;20081;-72